AirNav   Pilot Hours Calculator
 
 1011 users online  

1NC8 Lonesome Field Airport
Gold Hill, North Carolina, USA

GOING TO GOLD HILL?


FAA INFORMATION EFFECTIVE 01 DECEMBER 2022

Location

FAA Identifier: 1NC8
Lat/Long: 35-30-57.0000N 080-15-29.0000W
35-30.950000N 080-15.483333W
35.5158333,-80.2580556
(estimated)
Elevation: 665 ft. / 203 m (estimated)
From city: 4 miles E of GOLD HILL, NC
Time zone: UTC -5 (UTC -4 during Daylight Saving Time)
Zip code: 28071

Airport Operations

Airport use: Private use. Permission required prior to landing
Activation date: 02/2005
Control tower: no
ARTCC: ATLANTA CENTER
FSS: RALEIGH FLIGHT SERVICE STATION
Attendance: UNATNDD
Segmented circle: no

Airport Communications

WX AWOS-3 at VUJ (8 nm SE): 128.175 (704-986-2097)
WX AWOS-3 at RUQ (15 nm NW): 118.175 (704-637-6197)
WX AWOS-3 at EXX (16 nm N): 119.825 (336-956-2967)
WX AWOS-3 at HBI (20 nm NE): 119.275 (336-626-7933)

Nearby radio navigation aids

VOR radial/distance  VOR name  Freq  Var
GSOr206/34.6GREENSBORO VORTAC116.2003W
LIBr244/36.1LIBERTY VORTAC113.0003W
SDZr302/37.4SANDHILLS VORTAC111.8003W
CLTr065/39.2CHARLOTTE VOR/DME115.0005W

 
NDB name  Hdg/Dist  Freq  Var  ID
ALLER287/8.734606WVU ...- ..-

Airport Services

Runway Information

Runway 1/19

Dimensions: 2250 x 150 ft. / 686 x 46 m
Surface: turf
RUNWAY 1  RUNWAY 19
Traffic pattern: leftleft
Obstructions: 30 ft. trees, 10 ft. from runway50 ft. trees, 300 ft. from runway

Airport Ownership and Management from official FAA records

Ownership: Privately-owned
Owner: BILLY GRAY BOWMAN
15237 STOKES FERRY RD
GOLD HILL, NC 28071-0791
Phone (704) 244-0338
Manager: BILLY GRAY BOWMAN
15237 STOKES FERRY RD
GOLD HILL, NC 28071-0791
Phone (704) 244-0338

Airport Operational Statistics

Aircraft based on the field: 1
Single engine airplanes: 1
    

Additional Remarks

FOR CD CTC CHARLOTTE APCH AT 704-359-0241.

Instrument Procedures

There are no published instrument procedures at 1NC8.

Some nearby airports with instrument procedures:

KVUJ - Stanly County Airport (8 nm SE)
KRUQ - Mid-Carolina Regional Airport (15 nm NW)
KEXX - Davidson County Airport (16 nm N)
KHBI - Asheboro Regional Airport (20 nm NE)
KJQF - Concord-Padgett Regional Airport (23 nm W)
 
Loc | Ops | Rwys | IFR | FBO | Links
Com | Nav | Svcs | Stats | Notes
Area around 1NC8 (Lonesome Field Airport)
 
Road maps at: MapQuest Bing Google
 
Aerial photo
No photo
 
Sectional chart

 
Airport distance calculator
Flying to Lonesome Field Airport? Find the distance to fly.

From to 1NC8

Sunrise and sunset
Times for 06-Dec-2022
 Local
(UTC-5)
 Zulu
(UTC)
Morning civil twilight06:4911:49
Sunrise07:1712:17
Sunset17:0722:07
Evening civil twilight17:3522:35

Current date and time
Zulu (UTC)  07-Dec-2022 04:06:25
Local (UTC-5)  06-Dec-2022 23:06:25
 
METAR
KVUJ 
8nm SE 
070355Z AUTO 00000KT 1/4SM FG OVC002 11/11 A3030 RMK AO2 P0001 T01060106
KRUQ 
15nm NW 
070355Z AUTO 00000KT 3/4SM BR OVC004 09/08 A3026 RMK AO2 T00860084
KEXX 
16nm N 
070355Z AUTO 00000KT 1 1/4SM BR OVC002 09/09 A3027 RMK AO2 T00920092
KHBI 
19nm NE 
070355Z AUTO 31003KT 1/2SM FG OVC003 10/10 A3028 RMK AO2 T00980098
TAF
KINT 
37nm N 
061728Z 0618/0718 30003KT 1 1/2SM -RA BR OVC003 FM062200 VRB02KT 1 1/2SM BR OVC003 FM070400 VRB02KT 1/2SM FG OVC002
KGSO 
38nm NE 
061728Z 0618/0718 00000KT 1SM -DZ BR OVC003 FM062200 VRB02KT 1 1/2SM BR OVC003 FM070400 VRB02KT 1/2SM FG OVC002
KCLT 
38nm SW 
070153Z 0702/0806 VRB03KT 1/2SM -DZ FG OVC002 FM070400 VRB02KT 1/4SM -RADZ FG OVC001 FM071600 21004KT 1SM -DZ BR OVC003 FM071800 23005KT 5SM BR OVC006 FM072300 23004KT 6SM BR SCT006 BKN012
NOTAMs
Click for the latest NOTAMs
NOTAMs are issued by the DoD/FAA and will open in a separate window not controlled by AirNav.

 

 
 

Would you like to see your business listed on this page?

 If your business provides an interesting product or service to pilots, flight crews, aircraft, or users of the Lonesome Field Airport, you should consider listing it here.  To start the listing process, click on the button below
 
Add a business
 

Other Pages about Lonesome Field Airport

Update a link
 
Copyright © AirNav, LLC. All rights reserved. Privacy Policy  Contact